sensor_id;sensor_type;location;lat;lon;timestamp;temperature;humidity
15879;DHT22;61999;51.514;14.614;2023-04-03T00:01:19;-1.30;51.20
15879;DHT22;61999;51.514;14.614;2023-04-03T00:03:47;-1.30;51.20
15879;DHT22;61999;51.514;14.614;2023-04-03T00:06:16;-1.30;51.20
15879;DHT22;61999;51.514;14.614;2023-04-03T00:08:45;-1.30;51.10
15879;DHT22;61999;51.514;14.614;2023-04-03T00:11:13;-1.30;51.60
15879;DHT22;61999;51.514;14.614;2023-04-03T00:13:42;-1.30;50.80
15879;DHT22;61999;51.514;14.614;2023-04-03T00:16:11;-1.30;50.70
15879;DHT22;61999;51.514;14.614;2023-04-03T00:18:40;-1.20;50.20
15879;DHT22;61999;51.514;14.614;2023-04-03T00:21:09;-1.20;50.00
15879;DHT22;61999;51.514;14.614;2023-04-03T00:23:40;-1.20;50.10
15879;DHT22;61999;51.514;14.614;2023-04-03T00:26:09;-1.30;50.10
15879;DHT22;61999;51.514;14.614;2023-04-03T00:28:37;-1.30;50.20
15879;DHT22;61999;51.514;14.614;2023-04-03T00:31:05;-1.40;50.00
15879;DHT22;61999;51.514;14.614;2023-04-03T00:33:33;-1.40;50.10
15879;DHT22;61999;51.514;14.614;2023-04-03T00:36:06;-1.50;50.10
15879;DHT22;61999;51.514;14.614;2023-04-03T00:38:35;-1.50;50.20
15879;DHT22;61999;51.514;14.614;2023-04-03T00:41:04;-1.60;50.10
15879;DHT22;61999;51.514;14.614;2023-04-03T00:43:33;-1.60;50.00
15879;DHT22;61999;51.514;14.614;2023-04-03T00:46:01;-1.60;50.10
15879;DHT22;61999;51.514;14.614;2023-04-03T00:48:32;-1.70;50.10
15879;DHT22;61999;51.514;14.614;2023-04-03T00:51:04;-1.60;50.10
15879;DHT22;61999;51.514;14.614;2023-04-03T00:53:37;-1.70;50.10
15879;DHT22;61999;51.514;14.614;2023-04-03T00:56:10;-1.80;50.20
15879;DHT22;61999;51.514;14.614;2023-04-03T00:58:46;-1.80;50.20
15879;DHT22;61999;51.514;14.614;2023-04-03T01:01:22;-1.90;50.30
15879;DHT22;61999;51.514;14.614;2023-04-03T01:03:52;-1.90;50.50
15879;DHT22;61999;51.514;14.614;2023-04-03T01:06:24;-1.80;50.50
15879;DHT22;61999;51.514;14.614;2023-04-03T01:08:55;-1.90;50.40
15879;DHT22;61999;51.514;14.614;2023-04-03T01:11:23;-2.00;50.40
15879;DHT22;61999;51.514;14.614;2023-04-03T01:13:53;-2.10;50.50
15879;DHT22;61999;51.514;14.614;2023-04-03T01:16:20;-2.10;50.70
15879;DHT22;61999;51.514;14.614;2023-04-03T01:18:49;-2.20;50.80
15879;DHT22;61999;51.514;14.614;2023-04-03T01:21:54;-2.20;50.90
15879;DHT22;61999;51.514;14.614;2023-04-03T01:24:43;-2.30;51.20
15879;DHT22;61999;51.514;14.614;2023-04-03T01:27:13;-2.30;51.10
15879;DHT22;61999;51.514;14.614;2023-04-03T01:29:42;-2.30;51.20
15879;DHT22;61999;51.514;14.614;2023-04-03T01:32:12;-2.50;51.30
15879;DHT22;61999;51.514;14.614;2023-04-03T01:34:41;-2.50;51.40
15879;DHT22;61999;51.514;14.614;2023-04-03T01:37:09;-2.50;51.50
15879;DHT22;61999;51.514;14.614;2023-04-03T01:39:37;-2.50;51.60
15879;DHT22;61999;51.514;14.614;2023-04-03T01:42:05;-2.60;51.60
15879;DHT22;61999;51.514;14.614;2023-04-03T01:44:33;-2.70;51.70
15879;DHT22;61999;51.514;14.614;2023-04-03T01:47:01;-2.70;52.00
15879;DHT22;61999;51.514;14.614;2023-04-03T01:49:30;-2.70;52.00
15879;DHT22;61999;51.514;14.614;2023-04-03T01:51:58;-2.70;52.30
15879;DHT22;61999;51.514;14.614;2023-04-03T01:54:26;-2.70;52.20
15879;DHT22;61999;51.514;14.614;2023-04-03T01:56:54;-2.80;52.20
15879;DHT22;61999;51.514;14.614;2023-04-03T01:59:22;-2.80;52.30
15879;DHT22;61999;51.514;14.614;2023-04-03T02:01:50;-2.90;52.40
15879;DHT22;61999;51.514;14.614;2023-04-03T02:04:18;-2.80;52.60
15879;DHT22;61999;51.514;14.614;2023-04-03T02:06:47;-2.80;52.70
15879;DHT22;61999;51.514;14.614;2023-04-03T02:09:15;-2.90;52.60
15879;DHT22;61999;51.514;14.614;2023-04-03T02:11:43;-2.90;52.80
15879;DHT22;61999;51.514;14.614;2023-04-03T02:14:11;-2.90;52.80
15879;DHT22;61999;51.514;14.614;2023-04-03T02:16:39;-3.00;52.60
15879;DHT22;61999;51.514;14.614;2023-04-03T02:19:07;-3.10;53.00
15879;DHT22;61999;51.514;14.614;2023-04-03T02:21:35;-3.10;53.10
15879;DHT22;61999;51.514;14.614;2023-04-03T02:24:05;-3.10;53.30
15879;DHT22;61999;51.514;14.614;2023-04-03T02:26:33;-3.20;53.10
15879;DHT22;61999;51.514;14.614;2023-04-03T02:29:01;-3.20;53.10
15879;DHT22;61999;51.514;14.614;2023-04-03T02:31:29;-3.30;53.30
15879;DHT22;61999;51.514;14.614;2023-04-03T02:33:57;-3.30;53.60
15879;DHT22;61999;51.514;14.614;2023-04-03T02:36:25;-3.30;54.00
15879;DHT22;61999;51.514;14.614;2023-04-03T02:38:53;-3.30;53.80
15879;DHT22;61999;51.514;14.614;2023-04-03T02:41:22;-3.30;53.90
15879;DHT22;61999;51.514;14.614;2023-04-03T02:43:52;-3.30;53.90
15879;DHT22;61999;51.514;14.614;2023-04-03T02:46:19;-3.30;54.00
15879;DHT22;61999;51.514;14.614;2023-04-03T02:48:47;-3.40;53.80
15879;DHT22;61999;51.514;14.614;2023-04-03T02:51:15;-3.50;54.00
15879;DHT22;61999;51.514;14.614;2023-04-03T02:53:44;-3.50;53.80
15879;DHT22;61999;51.514;14.614;2023-04-03T02:56:12;-3.60;54.10
15879;DHT22;61999;51.514;14.614;2023-04-03T02:58:41;-3.60;54.40
15879;DHT22;61999;51.514;14.614;2023-04-03T03:01:09;-3.60;54.50
15879;DHT22;61999;51.514;14.614;2023-04-03T03:03:38;-3.70;54.40
15879;DHT22;61999;51.514;14.614;2023-04-03T03:06:08;-3.70;54.50
15879;DHT22;61999;51.514;14.614;2023-04-03T03:08:38;-3.70;54.80
15879;DHT22;61999;51.514;14.614;2023-04-03T03:11:07;-3.70;54.70
15879;DHT22;61999;51.514;14.614;2023-04-03T03:13:35;-3.80;54.90
15879;DHT22;61999;51.514;14.614;2023-04-03T03:16:05;-3.80;54.70
15879;DHT22;61999;51.514;14.614;2023-04-03T03:18:34;-3.90;54.80
15879;DHT22;61999;51.514;14.614;2023-04-03T03:21:03;-3.90;54.90
15879;DHT22;61999;51.514;14.614;2023-04-03T03:23:32;-4.00;54.80
15879;DHT22;61999;51.514;14.614;2023-04-03T03:26:02;-4.00;55.20
15879;DHT22;61999;51.514;14.614;2023-04-03T03:28:32;-4.00;55.20
15879;DHT22;61999;51.514;14.614;2023-04-03T03:31:01;-4.00;55.60
15879;DHT22;61999;51.514;14.614;2023-04-03T03:33:31;-3.90;55.90
15879;DHT22;61999;51.514;14.614;2023-04-03T03:35:59;-3.90;55.50
15879;DHT22;61999;51.514;14.614;2023-04-03T03:38:27;-3.90;55.30
15879;DHT22;61999;51.514;14.614;2023-04-03T03:40:55;-3.90;55.50
15879;DHT22;61999;51.514;14.614;2023-04-03T03:43:23;-4.00;55.40
15879;DHT22;61999;51.514;14.614;2023-04-03T03:45:52;-4.00;55.60
15879;DHT22;61999;51.514;14.614;2023-04-03T03:48:21;-4.00;55.90
15879;DHT22;61999;51.514;14.614;2023-04-03T03:50:50;-3.90;56.00
15879;DHT22;61999;51.514;14.614;2023-04-03T03:53:18;-3.90;55.80
15879;DHT22;61999;51.514;14.614;2023-04-03T03:55:46;-4.00;55.70
15879;DHT22;61999;51.514;14.614;2023-04-03T03:58:14;-4.00;55.90
15879;DHT22;61999;51.514;14.614;2023-04-03T04:00:42;-4.10;55.90
15879;DHT22;61999;51.514;14.614;2023-04-03T04:03:10;-4.10;56.10
15879;DHT22;61999;51.514;14.614;2023-04-03T04:05:38;-4.10;55.90
15879;DHT22;61999;51.514;14.614;2023-04-03T04:08:07;-4.20;56.30
15879;DHT22;61999;51.514;14.614;2023-04-03T04:10:35;-4.10;56.30
15879;DHT22;61999;51.514;14.614;2023-04-03T04:13:05;-4.20;56.20
15879;DHT22;61999;51.514;14.614;2023-04-03T04:15:33;-4.20;56.40
15879;DHT22;61999;51.514;14.614;2023-04-03T04:18:01;-4.20;56.50
15879;DHT22;61999;51.514;14.614;2023-04-03T04:20:29;-4.20;56.50
15879;DHT22;61999;51.514;14.614;2023-04-03T04:22:56;-4.20;56.90
15879;DHT22;61999;51.514;14.614;2023-04-03T04:25:26;-4.20;56.60
15879;DHT22;61999;51.514;14.614;2023-04-03T04:27:54;-4.20;56.80
15879;DHT22;61999;51.514;14.614;2023-04-03T04:30:21;-4.20;56.90
15879;DHT22;61999;51.514;14.614;2023-04-03T04:32:49;-4.30;56.90
15879;DHT22;61999;51.514;14.614;2023-04-03T04:35:17;-4.30;57.10
15879;DHT22;61999;51.514;14.614;2023-04-03T04:37:45;-4.30;57.00
15879;DHT22;61999;51.514;14.614;2023-04-03T04:40:13;-4.30;57.30
15879;DHT22;61999;51.514;14.614;2023-04-03T04:42:43;-4.20;57.60
15879;DHT22;61999;51.514;14.614;2023-04-03T04:45:11;-4.20;57.40
15879;DHT22;61999;51.514;14.614;2023-04-03T04:47:38;-4.20;57.40
15879;DHT22;61999;51.514;14.614;2023-04-03T04:50:07;-4.20;57.50
15879;DHT22;61999;51.514;14.614;2023-04-03T04:52:36;-4.20;57.50
15879;DHT22;61999;51.514;14.614;2023-04-03T04:55:05;-4.20;57.50
15879;DHT22;61999;51.514;14.614;2023-04-03T04:57:33;-4.20;57.60
15879;DHT22;61999;51.514;14.614;2023-04-03T05:00:04;-4.30;57.60
15879;DHT22;61999;51.514;14.614;2023-04-03T05:02:33;-4.30;57.70
15879;DHT22;61999;51.514;14.614;2023-04-03T05:05:01;-4.30;57.40
15879;DHT22;61999;51.514;14.614;2023-04-03T05:07:30;-4.30;57.60
15879;DHT22;61999;51.514;14.614;2023-04-03T05:09:58;-4.40;57.80
15879;DHT22;61999;51.514;14.614;2023-04-03T05:12:26;-4.40;57.70
15879;DHT22;61999;51.514;14.614;2023-04-03T05:14:54;-4.40;57.90
15879;DHT22;61999;51.514;14.614;2023-04-03T05:17:23;-4.30;58.20
15879;DHT22;61999;51.514;14.614;2023-04-03T05:19:51;-4.20;58.40
15879;DHT22;61999;51.514;14.614;2023-04-03T05:22:19;-4.20;58.50
15879;DHT22;61999;51.514;14.614;2023-04-03T05:24:47;-4.20;58.40
15879;DHT22;61999;51.514;14.614;2023-04-03T05:27:15;-4.20;58.40
15879;DHT22;61999;51.514;14.614;2023-04-03T05:29:43;-4.10;58.60
15879;DHT22;61999;51.514;14.614;2023-04-03T05:32:11;-4.10;58.30
15879;DHT22;61999;51.514;14.614;2023-04-03T05:34:40;-4.10;58.30
15879;DHT22;61999;51.514;14.614;2023-04-03T05:37:08;-4.10;58.30
15879;DHT22;61999;51.514;14.614;2023-04-03T05:39:36;-4.10;58.10
15879;DHT22;61999;51.514;14.614;2023-04-03T05:42:07;-4.10;58.20
15879;DHT22;61999;51.514;14.614;2023-04-03T05:44:35;-4.10;58.20
15879;DHT22;61999;51.514;14.614;2023-04-03T05:47:03;-4.10;58.20
15879;DHT22;61999;51.514;14.614;2023-04-03T05:49:31;-4.00;58.50
15879;DHT22;61999;51.514;14.614;2023-04-03T05:52:01;-4.00;58.30
15879;DHT22;61999;51.514;14.614;2023-04-03T05:54:30;-4.00;58.20
15879;DHT22;61999;51.514;14.614;2023-04-03T05:56:58;-3.90;58.20
15879;DHT22;61999;51.514;14.614;2023-04-03T05:59:26;-3.80;58.10
15879;DHT22;61999;51.514;14.614;2023-04-03T06:01:54;-3.70;58.10
15879;DHT22;61999;51.514;14.614;2023-04-03T06:04:22;-3.60;57.90
15879;DHT22;61999;51.514;14.614;2023-04-03T06:06:51;-3.70;57.80
15879;DHT22;61999;51.514;14.614;2023-04-03T06:09:24;-3.70;57.80
15879;DHT22;61999;51.514;14.614;2023-04-03T06:11:53;-3.80;57.80
15879;DHT22;61999;51.514;14.614;2023-04-03T06:14:21;-3.80;58.10
15879;DHT22;61999;51.514;14.614;2023-04-03T06:16:49;-3.70;58.10
15879;DHT22;61999;51.514;14.614;2023-04-03T06:19:18;-3.60;57.90
15879;DHT22;61999;51.514;14.614;2023-04-03T06:21:46;-3.60;57.90
15879;DHT22;61999;51.514;14.614;2023-04-03T06:24:16;-3.50;57.80
15879;DHT22;61999;51.514;14.614;2023-04-03T06:26:47;-3.60;57.60
15879;DHT22;61999;51.514;14.614;2023-04-03T06:29:18;-3.50;57.80
15879;DHT22;61999;51.514;14.614;2023-04-03T06:31:46;-3.50;57.80
15879;DHT22;61999;51.514;14.614;2023-04-03T06:34:14;-3.50;57.80
15879;DHT22;61999;51.514;14.614;2023-04-03T06:36:46;-3.60;57.80
15879;DHT22;61999;51.514;14.614;2023-04-03T06:39:15;-3.50;57.70
15879;DHT22;61999;51.514;14.614;2023-04-03T06:41:47;-3.40;57.80
15879;DHT22;61999;51.514;14.614;2023-04-03T06:44:16;-3.40;57.80
15879;DHT22;61999;51.514;14.614;2023-04-03T06:46:44;-3.40;58.00
15879;DHT22;61999;51.514;14.614;2023-04-03T06:49:13;-3.30;58.10
15879;DHT22;61999;51.514;14.614;2023-04-03T06:51:41;-3.20;58.10
15879;DHT22;61999;51.514;14.614;2023-04-03T06:54:09;-3.00;58.00
15879;DHT22;61999;51.514;14.614;2023-04-03T06:56:37;-2.90;57.80
15879;DHT22;61999;51.514;14.614;2023-04-03T06:59:06;-2.80;57.70
15879;DHT22;61999;51.514;14.614;2023-04-03T07:01:35;-2.70;57.70
15879;DHT22;61999;51.514;14.614;2023-04-03T07:04:03;-2.60;57.70
15879;DHT22;61999;51.514;14.614;2023-04-03T07:06:32;-2.40;58.00
15879;DHT22;61999;51.514;14.614;2023-04-03T07:09:00;-2.30;58.10
15879;DHT22;61999;51.514;14.614;2023-04-03T07:11:29;-2.10;57.60
15879;DHT22;61999;51.514;14.614;2023-04-03T07:13:57;-2.00;57.60
15879;DHT22;61999;51.514;14.614;2023-04-03T07:16:26;-1.80;57.40
15879;DHT22;61999;51.514;14.614;2023-04-03T07:18:54;-1.70;57.20
15879;DHT22;61999;51.514;14.614;2023-04-03T07:21:22;-1.40;55.70
15879;DHT22;61999;51.514;14.614;2023-04-03T07:23:50;-1.10;54.80
15879;DHT22;61999;51.514;14.614;2023-04-03T07:26:18;-1.00;54.10
15879;DHT22;61999;51.514;14.614;2023-04-03T07:28:47;-0.90;54.30
15879;DHT22;61999;51.514;14.614;2023-04-03T07:31:17;-0.90;54.50
15879;DHT22;61999;51.514;14.614;2023-04-03T07:33:46;-0.80;54.80
15879;DHT22;61999;51.514;14.614;2023-04-03T07:36:17;-0.70;55.30
15879;DHT22;61999;51.514;14.614;2023-04-03T07:38:46;-0.60;55.20
15879;DHT22;61999;51.514;14.614;2023-04-03T07:41:17;-0.40;54.70
15879;DHT22;61999;51.514;14.614;2023-04-03T07:43:49;-0.20;54.50
15879;DHT22;61999;51.514;14.614;2023-04-03T07:46:18;-0.10;54.60
15879;DHT22;61999;51.514;14.614;2023-04-03T07:48:48;0.10;55.10
15879;DHT22;61999;51.514;14.614;2023-04-03T07:51:16;0.40;52.90
15879;DHT22;61999;51.514;14.614;2023-04-03T07:53:44;0.60;53.60
15879;DHT22;61999;51.514;14.614;2023-04-03T07:56:12;0.80;53.60
15879;DHT22;61999;51.514;14.614;2023-04-03T07:58:40;1.00;53.50
15879;DHT22;61999;51.514;14.614;2023-04-03T08:01:08;1.20;52.70
15879;DHT22;61999;51.514;14.614;2023-04-03T08:03:36;1.40;52.60
15879;DHT22;61999;51.514;14.614;2023-04-03T08:06:08;1.60;51.60
15879;DHT22;61999;51.514;14.614;2023-04-03T08:08:37;1.80;51.80
15879;DHT22;61999;51.514;14.614;2023-04-03T08:11:06;2.00;52.00
15879;DHT22;61999;51.514;14.614;2023-04-03T08:13:35;2.20;52.10
15879;DHT22;61999;51.514;14.614;2023-04-03T08:16:10;2.40;51.60
15879;DHT22;61999;51.514;14.614;2023-04-03T08:18:39;2.60;51.40
15879;DHT22;61999;51.514;14.614;2023-04-03T08:21:09;2.90;50.80
15879;DHT22;61999;51.514;14.614;2023-04-03T08:23:39;3.00;50.50
15879;DHT22;61999;51.514;14.614;2023-04-03T08:26:09;3.10;50.70
15879;DHT22;61999;51.514;14.614;2023-04-03T08:28:39;3.30;49.10
15879;DHT22;61999;51.514;14.614;2023-04-03T08:31:10;3.40;48.90
15879;DHT22;61999;51.514;14.614;2023-04-03T08:33:41;3.50;47.90
15879;DHT22;61999;51.514;14.614;2023-04-03T08:36:19;3.60;47.20
15879;DHT22;61999;51.514;14.614;2023-04-03T08:38:48;3.60;47.20
15879;DHT22;61999;51.514;14.614;2023-04-03T08:41:24;3.60;47.00
15879;DHT22;61999;51.514;14.614;2023-04-03T08:44:14;3.60;46.50
15879;DHT22;61999;51.514;14.614;2023-04-03T08:47:04;3.60;46.10
15879;DHT22;61999;51.514;14.614;2023-04-03T08:49:42;3.60;45.90
15879;DHT22;61999;51.514;14.614;2023-04-03T08:52:17;3.60;46.10
15879;DHT22;61999;51.514;14.614;2023-04-03T08:54:51;3.70;46.10
15879;DHT22;61999;51.514;14.614;2023-04-03T08:57:28;3.80;47.00
15879;DHT22;61999;51.514;14.614;2023-04-03T08:59:59;4.00;47.30
15879;DHT22;61999;51.514;14.614;2023-04-03T09:02:33;4.40;47.30
15879;DHT22;61999;51.514;14.614;2023-04-03T09:05:11;4.70;48.30
15879;DHT22;61999;51.514;14.614;2023-04-03T09:07:46;5.20;49.00
15879;DHT22;61999;51.514;14.614;2023-04-03T09:10:23;5.70;48.00
15879;DHT22;61999;51.514;14.614;2023-04-03T09:13:01;6.10;42.70
15879;DHT22;61999;51.514;14.614;2023-04-03T09:15:35;6.30;42.50
15879;DHT22;61999;51.514;14.614;2023-04-03T09:18:08;6.30;42.70
15879;DHT22;61999;51.514;14.614;2023-04-03T09:20:46;6.30;39.30
15879;DHT22;61999;51.514;14.614;2023-04-03T09:23:28;6.20;40.20
15879;DHT22;61999;51.514;14.614;2023-04-03T09:26:03;6.00;40.30
15879;DHT22;61999;51.514;14.614;2023-04-03T09:28:37;6.00;39.30
15879;DHT22;61999;51.514;14.614;2023-04-03T09:31:20;5.90;38.10
15879;DHT22;61999;51.514;14.614;2023-04-03T09:33:54;5.60;38.80
15879;DHT22;61999;51.514;14.614;2023-04-03T09:36:38;5.40;38.40
15879;DHT22;61999;51.514;14.614;2023-04-03T09:39:13;5.10;39.20
15879;DHT22;61999;51.514;14.614;2023-04-03T09:41:55;5.00;39.50
15879;DHT22;61999;51.514;14.614;2023-04-03T09:44:29;4.70;40.60
15879;DHT22;61999;51.514;14.614;2023-04-03T09:46:59;4.70;40.10
15879;DHT22;61999;51.514;14.614;2023-04-03T09:49:45;4.60;40.50
15879;DHT22;61999;51.514;14.614;2023-04-03T09:52:22;4.50;41.20
15879;DHT22;61999;51.514;14.614;2023-04-03T09:54:53;4.40;40.80
15879;DHT22;61999;51.514;14.614;2023-04-03T09:57:21;4.40;40.50
15879;DHT22;61999;51.514;14.614;2023-04-03T09:59:57;4.40;40.30
15879;DHT22;61999;51.514;14.614;2023-04-03T10:02:34;4.40;40.90
15879;DHT22;61999;51.514;14.614;2023-04-03T10:05:23;4.40;41.70
15879;DHT22;61999;51.514;14.614;2023-04-03T10:08:08;4.50;41.00
15879;DHT22;61999;51.514;14.614;2023-04-03T10:10:40;4.50;40.40
15879;DHT22;61999;51.514;14.614;2023-04-03T10:13:12;4.60;40.00
15879;DHT22;61999;51.514;14.614;2023-04-03T10:15:50;4.50;40.90
15879;DHT22;61999;51.514;14.614;2023-04-03T10:18:31;4.50;40.60
15879;DHT22;61999;51.514;14.614;2023-04-03T10:21:10;4.60;38.90
15879;DHT22;61999;51.514;14.614;2023-04-03T10:23:56;4.70;38.40
15879;DHT22;61999;51.514;14.614;2023-04-03T10:26:41;4.60;39.30
15879;DHT22;61999;51.514;14.614;2023-04-03T10:29:26;4.70;38.00
15879;DHT22;61999;51.514;14.614;2023-04-03T10:32:15;4.70;37.80
15879;DHT22;61999;51.514;14.614;2023-04-03T10:34:58;5.00;36.80
15879;DHT22;61999;51.514;14.614;2023-04-03T10:37:45;5.00;38.10
15879;DHT22;61999;51.514;14.614;2023-04-03T10:40:30;5.10;37.70
15879;DHT22;61999;51.514;14.614;2023-04-03T10:43:12;5.00;38.30
15879;DHT22;61999;51.514;14.614;2023-04-03T10:45:57;5.00;38.40
15879;DHT22;61999;51.514;14.614;2023-04-03T10:48:49;5.00;39.10
15879;DHT22;61999;51.514;14.614;2023-04-03T10:51:31;5.00;39.90
15879;DHT22;61999;51.514;14.614;2023-04-03T10:54:11;5.20;40.10
15879;DHT22;61999;51.514;14.614;2023-04-03T10:56:47;5.40;38.90
15879;DHT22;61999;51.514;14.614;2023-04-03T10:59:27;5.60;37.60
15879;DHT22;61999;51.514;14.614;2023-04-03T11:02:01;5.70;37.10
15879;DHT22;61999;51.514;14.614;2023-04-03T11:04:36;5.70;36.70
15879;DHT22;61999;51.514;14.614;2023-04-03T11:07:10;5.70;36.10
15879;DHT22;61999;51.514;14.614;2023-04-03T11:09:44;5.60;36.20
15879;DHT22;61999;51.514;14.614;2023-04-03T11:12:19;5.70;35.20
15879;DHT22;61999;51.514;14.614;2023-04-03T11:14:55;5.70;35.90
15879;DHT22;61999;51.514;14.614;2023-04-03T11:17:30;5.70;37.30
15879;DHT22;61999;51.514;14.614;2023-04-03T11:20:08;5.80;37.90
15879;DHT22;61999;51.514;14.614;2023-04-03T11:22:44;5.90;34.50
15879;DHT22;61999;51.514;14.614;2023-04-03T11:25:20;6.00;34.80
15879;DHT22;61999;51.514;14.614;2023-04-03T11:27:54;5.90;33.90
15879;DHT22;61999;51.514;14.614;2023-04-03T11:30:30;5.80;35.40
15879;DHT22;61999;51.514;14.614;2023-04-03T11:33:16;5.70;34.30
15879;DHT22;61999;51.514;14.614;2023-04-03T11:35:55;5.60;34.60
15879;DHT22;61999;51.514;14.614;2023-04-03T11:38:32;5.50;35.00
15879;DHT22;61999;51.514;14.614;2023-04-03T11:41:07;5.40;33.80
15879;DHT22;61999;51.514;14.614;2023-04-03T11:43:41;5.30;34.50
15879;DHT22;61999;51.514;14.614;2023-04-03T11:46:51;5.20;34.70
15879;DHT22;61999;51.514;14.614;2023-04-03T11:49:51;5.00;34.90
15879;DHT22;61999;51.514;14.614;2023-04-03T11:52:56;4.90;34.90
15879;DHT22;61999;51.514;14.614;2023-04-03T11:55:59;4.80;35.50
15879;DHT22;61999;51.514;14.614;2023-04-03T11:58:30;4.80;35.20
15879;DHT22;61999;51.514;14.614;2023-04-03T12:01:05;4.80;34.80
15879;DHT22;61999;51.514;14.614;2023-04-03T12:04:07;4.70;34.80
15879;DHT22;61999;51.514;14.614;2023-04-03T12:10:00;4.80;35.10
15879;DHT22;61999;51.514;14.614;2023-04-03T12:12:40;4.70;36.00
15879;DHT22;61999;51.514;14.614;2023-04-03T12:22:04;4.90;35.00
15879;DHT22;61999;51.514;14.614;2023-04-03T12:24:41;4.80;34.70
15879;DHT22;61999;51.514;14.614;2023-04-03T12:27:22;4.80;34.10
15879;DHT22;61999;51.514;14.614;2023-04-03T12:29:58;4.70;34.20
15879;DHT22;61999;51.514;14.614;2023-04-03T12:32:42;4.80;34.10
15879;DHT22;61999;51.514;14.614;2023-04-03T12:35:29;4.80;33.60
15879;DHT22;61999;51.514;14.614;2023-04-03T12:38:19;4.90;33.50
15879;DHT22;61999;51.514;14.614;2023-04-03T12:41:14;4.80;33.40
15879;DHT22;61999;51.514;14.614;2023-04-03T12:43:58;4.80;33.50
15879;DHT22;61999;51.514;14.614;2023-04-03T12:46:44;4.60;33.60
15879;DHT22;61999;51.514;14.614;2023-04-03T12:49:26;4.50;34.10
15879;DHT22;61999;51.514;14.614;2023-04-03T12:52:05;4.40;34.20
15879;DHT22;61999;51.514;14.614;2023-04-03T12:54:46;4.40;34.90
15879;DHT22;61999;51.514;14.614;2023-04-03T12:57:18;4.40;34.10
15879;DHT22;61999;51.514;14.614;2023-04-03T12:59:48;4.40;34.90
15879;DHT22;61999;51.514;14.614;2023-04-03T13:02:24;4.40;35.20
15879;DHT22;61999;51.514;14.614;2023-04-03T13:04:56;4.40;35.10
15879;DHT22;61999;51.514;14.614;2023-04-03T13:07:28;4.50;35.10
15879;DHT22;61999;51.514;14.614;2023-04-03T13:10:03;4.50;35.60
15879;DHT22;61999;51.514;14.614;2023-04-03T13:12:48;4.70;34.20
15879;DHT22;61999;51.514;14.614;2023-04-03T13:15:21;4.70;34.60
15879;DHT22;61999;51.514;14.614;2023-04-03T13:17:52;4.70;35.00
15879;DHT22;61999;51.514;14.614;2023-04-03T13:20:24;4.70;35.50
15879;DHT22;61999;51.514;14.614;2023-04-03T13:22:57;4.70;34.80
15879;DHT22;61999;51.514;14.614;2023-04-03T13:25:33;4.80;34.70
15879;DHT22;61999;51.514;14.614;2023-04-03T13:28:04;4.80;34.20
15879;DHT22;61999;51.514;14.614;2023-04-03T13:30:39;4.70;34.30
15879;DHT22;61999;51.514;14.614;2023-04-03T13:33:20;4.80;34.30
15879;DHT22;61999;51.514;14.614;2023-04-03T13:35:55;4.60;35.10
15879;DHT22;61999;51.514;14.614;2023-04-03T13:38:26;4.70;34.80
15879;DHT22;61999;51.514;14.614;2023-04-03T13:41:01;4.70;34.00
15879;DHT22;61999;51.514;14.614;2023-04-03T13:43:33;4.70;33.90
15879;DHT22;61999;51.514;14.614;2023-04-03T13:46:20;4.70;34.20
15879;DHT22;61999;51.514;14.614;2023-04-03T13:48:53;4.80;34.00
15879;DHT22;61999;51.514;14.614;2023-04-03T13:51:24;4.90;33.40
15879;DHT22;61999;51.514;14.614;2023-04-03T13:53:56;5.00;33.40
15879;DHT22;61999;51.514;14.614;2023-04-03T13:56:31;5.00;34.30
15879;DHT22;61999;51.514;14.614;2023-04-03T13:59:19;5.10;33.20
15879;DHT22;61999;51.514;14.614;2023-04-03T14:01:54;5.30;33.50
15879;DHT22;61999;51.514;14.614;2023-04-03T14:04:44;5.50;32.30
15879;DHT22;61999;51.514;14.614;2023-04-03T14:07:16;5.40;32.70
15879;DHT22;61999;51.514;14.614;2023-04-03T14:09:47;5.20;33.50
15879;DHT22;61999;51.514;14.614;2023-04-03T14:12:18;5.10;33.50
15879;DHT22;61999;51.514;14.614;2023-04-03T14:14:56;5.20;33.70
15879;DHT22;61999;51.514;14.614;2023-04-03T14:17:26;5.30;33.00
15879;DHT22;61999;51.514;14.614;2023-04-03T14:19:55;5.40;33.30
15879;DHT22;61999;51.514;14.614;2023-04-03T14:22:27;5.40;33.20
15879;DHT22;61999;51.514;14.614;2023-04-03T14:24:56;5.50;33.30
15879;DHT22;61999;51.514;14.614;2023-04-03T14:27:28;5.40;33.10
15879;DHT22;61999;51.514;14.614;2023-04-03T14:30:01;5.30;33.50
15879;DHT22;61999;51.514;14.614;2023-04-03T14:32:30;5.20;33.20
15879;DHT22;61999;51.514;14.614;2023-04-03T14:34:58;5.20;33.60
15879;DHT22;61999;51.514;14.614;2023-04-03T14:37:28;5.20;34.30
15879;DHT22;61999;51.514;14.614;2023-04-03T14:39:59;5.50;34.20
15879;DHT22;61999;51.514;14.614;2023-04-03T14:42:34;5.90;34.10
15879;DHT22;61999;51.514;14.614;2023-04-03T14:45:06;6.40;34.80
15879;DHT22;61999;51.514;14.614;2023-04-03T14:47:40;7.10;32.90
15879;DHT22;61999;51.514;14.614;2023-04-03T14:50:16;7.40;33.50
15879;DHT22;61999;51.514;14.614;2023-04-03T14:52:48;7.80;32.90
15879;DHT22;61999;51.514;14.614;2023-04-03T14:55:20;8.10;32.00
15879;DHT22;61999;51.514;14.614;2023-04-03T14:57:52;8.50;30.80
15879;DHT22;61999;51.514;14.614;2023-04-03T15:00:22;8.90;29.20
15879;DHT22;61999;51.514;14.614;2023-04-03T15:02:51;8.90;29.40
15879;DHT22;61999;51.514;14.614;2023-04-03T15:05:19;8.80;30.00
15879;DHT22;61999;51.514;14.614;2023-04-03T15:07:49;8.60;29.70
15879;DHT22;61999;51.514;14.614;2023-04-03T15:10:22;8.30;29.50
15879;DHT22;61999;51.514;14.614;2023-04-03T15:12:54;8.30;29.80
15879;DHT22;61999;51.514;14.614;2023-04-03T15:15:23;8.20;29.90
15879;DHT22;61999;51.514;14.614;2023-04-03T15:17:53;8.10;30.50
15879;DHT22;61999;51.514;14.614;2023-04-03T15:20:26;8.10;30.90
15879;DHT22;61999;51.514;14.614;2023-04-03T15:22:57;8.30;30.50
15879;DHT22;61999;51.514;14.614;2023-04-03T15:25:27;8.70;30.50
15879;DHT22;61999;51.514;14.614;2023-04-03T15:27:57;9.10;29.80
15879;DHT22;61999;51.514;14.614;2023-04-03T15:30:25;9.40;29.40
15879;DHT22;61999;51.514;14.614;2023-04-03T15:32:53;9.70;28.70
15879;DHT22;61999;51.514;14.614;2023-04-03T15:35:22;9.70;28.60
15879;DHT22;61999;51.514;14.614;2023-04-03T15:37:51;9.60;28.30
15879;DHT22;61999;51.514;14.614;2023-04-03T15:40:21;9.40;28.60
15879;DHT22;61999;51.514;14.614;2023-04-03T15:42:53;9.20;28.10
15879;DHT22;61999;51.514;14.614;2023-04-03T15:45:28;9.00;28.20
15879;DHT22;61999;51.514;14.614;2023-04-03T15:47:57;8.60;29.00
15879;DHT22;61999;51.514;14.614;2023-04-03T15:50:25;8.20;28.70
15879;DHT22;61999;51.514;14.614;2023-04-03T15:52:53;7.90;29.00
15879;DHT22;61999;51.514;14.614;2023-04-03T15:55:23;7.60;29.80
15879;DHT22;61999;51.514;14.614;2023-04-03T15:57:53;7.40;29.40
15879;DHT22;61999;51.514;14.614;2023-04-03T16:00:22;7.10;29.50
15879;DHT22;61999;51.514;14.614;2023-04-03T16:02:54;6.80;30.00
15879;DHT22;61999;51.514;14.614;2023-04-03T16:05:25;6.70;30.50